createdAt,value
2022-12-24T00:05:27.280Z,90.24
2022-12-24T00:10:51.910Z,90.52
2022-12-24T00:16:16.116Z,90.24
2022-12-24T00:21:39.708Z,90.20
2022-12-24T00:27:21.308Z,90.28
2022-12-24T00:33:02.634Z,90.46
2022-12-24T00:38:43.520Z,90.43
2022-12-24T00:44:10.398Z,90.43
2022-12-24T00:49:34.873Z,90.42
2022-12-24T00:54:58.720Z,90.20
2022-12-24T01:00:22.470Z,90.35
2022-12-24T01:05:46.404Z,90.15
2022-12-24T01:11:10.417Z,90.53
2022-12-24T01:16:34.220Z,91.31
2022-12-24T01:21:58.566Z,92.39
2022-12-24T01:27:22.199Z,93.79
2022-12-24T01:32:46.538Z,94.77
2022-12-24T01:38:12.076Z,95.07
2022-12-24T01:43:35.394Z,95.19
2022-12-24T01:49:03.232Z,95.02
2022-12-24T01:54:32.419Z,95.09
2022-12-24T01:59:58.137Z,95.70
2022-12-24T02:05:51.591Z,95.87
2022-12-24T02:11:16.218Z,95.70
2022-12-24T02:16:42.857Z,95.66
2022-12-24T02:22:30.531Z,95.61
2022-12-24T02:28:04.030Z,95.35
2022-12-24T02:33:27.760Z,95.27
2022-12-24T02:39:00.970Z,95.24
2022-12-24T02:44:24.969Z,95.59
2022-12-24T02:49:49.357Z,95.49
2022-12-24T02:55:13.228Z,95.30
2022-12-24T03:00:48.601Z,95.18
2022-12-24T03:06:20.323Z,95.22
2022-12-24T03:11:46.412Z,95.26
2022-12-24T03:17:10.650Z,95.22
2022-12-24T03:22:34.713Z,95.12
2022-12-24T03:27:59.447Z,94.64
2022-12-24T03:33:23.656Z,94.07
2022-12-24T03:38:47.865Z,93.49
2022-12-24T03:44:12.178Z,92.73
2022-12-24T03:49:35.863Z,92.80
2022-12-24T03:54:59.905Z,93.17
2022-12-24T04:00:23.989Z,93.44
2022-12-24T04:05:47.945Z,93.47
2022-12-24T04:11:16.157Z,93.15
2022-12-24T04:16:40.330Z,92.88
2022-12-24T04:22:03.825Z,92.31
2022-12-24T04:27:30.577Z,91.91
2022-12-24T04:32:54.962Z,91.45
2022-12-24T04:38:18.982Z,91.38
2022-12-24T04:43:42.580Z,91.32
2022-12-24T04:49:06.801Z,91.23
2022-12-24T04:54:30.519Z,91.05
2022-12-24T04:59:54.213Z,91.27
2022-12-24T05:05:18.657Z,91.37
2022-12-24T05:10:42.836Z,91.88
2022-12-24T05:16:06.626Z,92.12
2022-12-24T05:21:30.247Z,92.61
2022-12-24T05:26:55.003Z,92.97
2022-12-24T05:32:18.737Z,93.04
2022-12-24T05:37:42.569Z,93.10
2022-12-24T05:43:06.905Z,92.80
2022-12-24T05:48:30.691Z,92.96
2022-12-24T05:53:55.161Z,93.12
2022-12-24T05:59:19.148Z,93.05
2022-12-24T06:04:42.355Z,93.40
2022-12-24T06:10:08.126Z,93.49
2022-12-24T06:15:32.415Z,93.63
2022-12-24T06:20:57.092Z,93.83
2022-12-24T06:26:21.956Z,93.99
2022-12-24T06:31:45.817Z,94.08
2022-12-24T06:37:16.809Z,94.25
2022-12-24T06:42:40.733Z,94.51
2022-12-24T06:48:05.233Z,94.65
2022-12-24T06:53:28.691Z,94.66
2022-12-24T06:58:52.484Z,94.69
2022-12-24T07:04:20.453Z,94.81
2022-12-24T07:09:44.643Z,94.87
2022-12-24T07:15:09.770Z,94.98
2022-12-24T07:20:34.695Z,95.50
2022-12-24T07:26:02.539Z,95.55
2022-12-24T07:31:27.356Z,95.83
2022-12-24T07:36:53.825Z,95.89
2022-12-24T07:42:17.285Z,96.24
2022-12-24T07:47:41.896Z,96.47
2022-12-24T07:53:06.255Z,96.78
2022-12-24T07:58:29.795Z,96.91
2022-12-24T08:03:55.059Z,96.99
2022-12-24T08:09:18.625Z,97.15
2022-12-24T08:14:43.093Z,96.65
2022-12-24T08:20:10.099Z,96.35
2022-12-24T08:25:37.984Z,96.26
2022-12-24T08:31:04.304Z,96.26
2022-12-24T08:36:36.553Z,96.32
2022-12-24T08:42:03.013Z,96.48
2022-12-24T08:47:30.791Z,96.50
2022-12-24T08:52:59.817Z,96.63
2022-12-24T08:58:31.037Z,96.52
2022-12-24T09:03:58.177Z,96.48
2022-12-24T09:09:24.240Z,96.36
2022-12-24T09:14:48.216Z,96.03
2022-12-24T09:20:12.586Z,95.59
2022-12-24T09:25:36.245Z,94.79
2022-12-24T09:31:01.285Z,94.18
2022-12-24T09:36:24.804Z,93.57
2022-12-24T09:42:07.366Z,93.17
2022-12-24T09:47:32.193Z,92.81
2022-12-24T09:52:56.583Z,92.41
2022-12-24T09:58:40.766Z,91.98
2022-12-24T10:04:06.056Z,91.43
2022-12-24T10:09:32.669Z,90.50
2022-12-24T10:15:02.769Z,89.96
2022-12-24T10:20:26.734Z,89.22
2022-12-24T10:25:55.636Z,89.27
2022-12-24T10:31:41.081Z,88.93
2022-12-24T10:37:06.052Z,88.53
2022-12-24T10:42:35.545Z,88.04
2022-12-24T10:48:02.215Z,87.71
2022-12-24T10:53:28.497Z,86.82
2022-12-24T10:58:58.304Z,86.52
2022-12-24T11:04:28.746Z,86.41
2022-12-24T11:10:00.201Z,85.70
2022-12-24T11:15:28.539Z,85.05
2022-12-24T11:20:56.015Z,85.44
2022-12-24T11:26:26.290Z,85.30
2022-12-24T11:31:53.642Z,84.70
2022-12-24T11:37:26.323Z,83.60
2022-12-24T11:42:57.425Z,82.03
2022-12-24T11:48:34.040Z,81.19
2022-12-24T11:54:17.713Z,80.21
2022-12-24T11:59:46.480Z,80.29
2022-12-24T12:05:15.432Z,80.04
2022-12-24T12:10:43.947Z,79.77
2022-12-24T12:16:20.194Z,79.22
2022-12-24T12:21:50.515Z,78.63
2022-12-24T12:27:20.919Z,78.10
2022-12-24T12:32:49.971Z,78.15
2022-12-24T12:38:24.154Z,77.62
2022-12-24T12:43:51.746Z,77.02
2022-12-24T12:49:21.548Z,77.17
2022-12-24T12:54:48.229Z,77.38
2022-12-24T13:00:16.302Z,76.75
2022-12-24T13:05:42.830Z,76.37
2022-12-24T13:11:16.906Z,76.45
2022-12-24T13:16:53.097Z,76.50
2022-12-24T13:22:23.228Z,76.32
2022-12-24T13:27:50.382Z,76.15
2022-12-24T13:33:18.179Z,76.34
2022-12-24T13:39:00.843Z,76.46
2022-12-24T13:44:33.741Z,76.81
2022-12-24T13:50:01.961Z,76.55
2022-12-24T13:55:31.482Z,76.35
2022-12-24T14:01:06.172Z,75.91
2022-12-24T14:06:35.524Z,76.30
2022-12-24T14:12:04.728Z,76.11
2022-12-24T14:17:33.740Z,76.18
2022-12-24T14:23:01.890Z,76.41
2022-12-24T14:28:38.528Z,76.69
2022-12-24T14:34:12.890Z,76.68
2022-12-24T14:39:39.268Z,77.06
2022-12-24T14:45:09.941Z,77.18
2022-12-24T14:50:41.903Z,77.31
2022-12-24T14:56:27.150Z,77.71
2022-12-24T15:01:57.765Z,78.00
2022-12-24T15:07:25.066Z,78.35
2022-12-24T15:12:52.898Z,78.86
2022-12-24T15:18:21.069Z,79.25
2022-12-24T15:23:52.108Z,79.81
2022-12-24T15:29:30.036Z,80.20
2022-12-24T15:35:02.011Z,80.83
2022-12-24T15:40:30.285Z,80.95
2022-12-24T15:45:59.144Z,81.61
2022-12-24T15:51:33.568Z,82.06
2022-12-24T15:57:14.128Z,82.39
2022-12-24T16:02:44.810Z,82.56
2022-12-24T16:08:18.305Z,83.04
2022-12-24T16:13:56.049Z,83.37
2022-12-24T16:19:24.596Z,83.92
2022-12-24T16:24:53.056Z,84.00
2022-12-24T16:30:20.661Z,84.31
2022-12-24T16:35:49.186Z,84.20
2022-12-24T16:41:20.070Z,84.37
2022-12-24T16:46:47.880Z,84.46
2022-12-24T16:52:18.996Z,84.64
2022-12-24T16:57:46.641Z,84.68
2022-12-24T17:03:14.943Z,85.08
2022-12-24T17:08:43.275Z,85.37
2022-12-24T17:14:20.598Z,85.60
2022-12-24T17:19:48.095Z,86.00
2022-12-24T17:25:15.058Z,86.41
2022-12-24T17:30:49.900Z,86.55
2022-12-24T17:36:18.398Z,87.28
2022-12-24T17:41:48.408Z,87.56
2022-12-24T17:47:16.901Z,88.36
2022-12-24T17:52:43.219Z,88.39
2022-12-24T17:58:09.709Z,88.62
2022-12-24T18:03:35.280Z,88.83
2022-12-24T18:09:02.940Z,88.78
2022-12-24T18:14:31.773Z,88.69
2022-12-24T18:20:00.856Z,88.74
2022-12-24T18:25:31.298Z,88.79
2022-12-24T18:31:07.899Z,88.71
2022-12-24T18:36:51.284Z,88.75
2022-12-24T18:42:27.566Z,88.74
2022-12-24T18:47:56.593Z,88.61
2022-12-24T18:53:25.332Z,88.52
2022-12-24T18:58:51.816Z,88.22
2022-12-24T19:04:26.574Z,88.48
2022-12-24T19:09:57.347Z,88.19
2022-12-24T19:15:35.660Z,88.23
2022-12-24T19:21:18.446Z,88.36
2022-12-24T19:26:57.689Z,88.66
2022-12-24T19:32:24.702Z,88.65
2022-12-24T19:37:51.691Z,89.06
2022-12-24T19:43:17.602Z,89.59
2022-12-24T19:48:44.426Z,89.49
2022-12-24T19:54:29.036Z,89.75
2022-12-24T20:00:11.311Z,89.74
2022-12-24T20:05:44.553Z,89.73
2022-12-24T20:11:11.815Z,89.88
2022-12-24T20:16:36.869Z,90.09
2022-12-24T20:22:04.261Z,90.11
2022-12-24T20:27:31.844Z,89.89
2022-12-24T20:32:59.858Z,89.85
2022-12-24T20:38:25.941Z,89.85
2022-12-24T20:43:55.883Z,90.03
2022-12-24T20:49:24.100Z,90.45
2022-12-24T20:54:51.816Z,90.77
2022-12-24T21:00:23.832Z,90.77
2022-12-24T21:05:51.999Z,91.17
2022-12-24T21:11:35.217Z,91.44
2022-12-24T21:17:01.252Z,91.53
2022-12-24T21:22:27.845Z,91.65
2022-12-24T21:27:53.608Z,91.57
2022-12-24T21:33:20.226Z,91.75
2022-12-24T21:38:49.861Z,91.90
2022-12-24T21:44:15.213Z,91.73
2022-12-24T21:49:58.114Z,91.62
2022-12-24T21:55:25.563Z,91.44
2022-12-24T22:00:53.021Z,91.43
2022-12-24T22:06:33.592Z,91.36
2022-12-24T22:11:59.513Z,91.49
2022-12-24T22:17:25.653Z,91.89
2022-12-24T22:22:52.151Z,91.96
2022-12-24T22:28:18.152Z,92.14
2022-12-24T22:33:46.305Z,92.34
2022-12-24T22:39:14.810Z,92.36
2022-12-24T22:44:42.029Z,92.37
2022-12-24T22:50:08.725Z,92.56
2022-12-24T22:55:35.010Z,92.61
2022-12-24T23:01:01.966Z,92.86
2022-12-24T23:06:28.452Z,92.96
2022-12-24T23:11:57.917Z,93.37
2022-12-24T23:17:25.281Z,93.16
2022-12-24T23:22:50.660Z,93.31
2022-12-24T23:28:15.186Z,93.05
2022-12-24T23:33:39.893Z,93.05
2022-12-24T23:39:05.041Z,93.27
2022-12-24T23:44:32.793Z,93.12
2022-12-24T23:50:02.986Z,93.21
2022-12-24T23:55:29.312Z,93.05
